SWA4093 KPHX-KDFW
Flight info
| Callsign | SWA4093 |
|---|---|
| Flight time | N/A |
| Altitude | 35000 |
| Route | BROAK1 MAXXO TXO TURKI VKTRY2 |
| Aircraft | B738/M-SDE2E3FGHIRWXY/LB1 |
Departure
| Time | 2026-05-08 06:01 |
|---|---|
| Airport | Phoenix Sky Harbor International Airport (KPHX) |
Arrival
| Time | N/A |
|---|---|
| Airport | Dallas Fort Worth International Airport (KDFW) |
| Time | Latitude | Longitude | Altitude | Speed | Heading |
|---|---|---|---|---|---|
| 2026-05-08 05:41 | 33.43372 | -111.99626 | 1130 ft | 0 kts | 317° |
| 2026-05-08 05:51 | 33.43371 | -111.99624 | 1132 ft | 2 kts | 320° |
| 2026-05-08 05:51 | 33.43366 | -111.99619 | 1130 ft | 0 kts | 321° |
| 2026-05-08 05:52 | 33.43360 | -111.99613 | 1137 ft | 1 kts | 322° |
| 2026-05-08 05:52 | 33.43350 | -111.99604 | 1135 ft | 2 kts | 322° |
| 2026-05-08 05:53 | 33.43340 | -111.99595 | 1135 ft | 2 kts | 322° |
| 2026-05-08 05:53 | 33.43331 | -111.99586 | 1132 ft | 2 kts | 322° |
| 2026-05-08 05:53 | 33.43321 | -111.99577 | 1132 ft | 1 kts | 322° |
| 2026-05-08 05:53 | 33.43312 | -111.99569 | 1142 ft | 1 kts | 322° |
| 2026-05-08 05:54 | 33.43306 | -111.99564 | 1137 ft | 0 kts | 322° |
| 2026-05-08 05:57 | 33.43304 | -111.99589 | 1133 ft | 6 kts | 238° |
| 2026-05-08 05:58 | 33.43284 | -111.99653 | 1131 ft | 12 kts | 263° |
| 2026-05-08 05:58 | 33.43278 | -111.99775 | 1130 ft | 15 kts | 267° |
| 2026-05-08 05:58 | 33.43219 | -111.99771 | 1133 ft | 15 kts | 103° |
| 2026-05-08 05:58 | 33.43216 | -111.99651 | 1132 ft | 14 kts | 90° |
| 2026-05-08 05:59 | 33.43214 | -111.99529 | 1134 ft | 17 kts | 89° |
| 2026-05-08 05:59 | 33.43213 | -111.99373 | 1134 ft | 19 kts | 91° |
| 2026-05-08 05:59 | 33.43135 | -111.99328 | 1138 ft | 19 kts | 220° |
| 2026-05-08 05:59 | 33.43104 | -111.99473 | 1134 ft | 19 kts | 270° |
| 2026-05-08 06:00 | 33.43103 | -111.99627 | 1138 ft | 22 kts | 270° |
| 2026-05-08 06:00 | 33.43102 | -112.00014 | 1133 ft | 91 kts | 270° |
| 2026-05-08 06:00 | 33.43107 | -112.00584 | 1133 ft | 135 kts | 271° |
| 2026-05-08 06:00 | 33.43131 | -112.01962 | 1318 ft | 185 kts | 271° |
| 2026-05-08 06:01 | 33.43142 | -112.03560 | 2091 ft | 193 kts | 270° |
| 2026-05-08 06:01 | 33.43084 | -112.05147 | 3123 ft | 190 kts | 265° |
| 2026-05-08 06:01 | 33.42863 | -112.06784 | 3642 ft | 217 kts | 261° |
| 2026-05-08 06:01 | 33.42509 | -112.08705 | 3792 ft | 251 kts | 258° |
| 2026-05-08 06:02 | 33.42073 | -112.10793 | 4337 ft | 267 kts | 257° |
| 2026-05-08 06:02 | 33.41596 | -112.12982 | 4999 ft | 274 kts | 257° |
| 2026-05-08 06:02 | 33.41047 | -112.15126 | 5853 ft | 276 kts | 250° |